sensor_id;sensor_type;location;lat;lon;timestamp;pressure;altitude;pressure_sealevel;temperature;humidity
8717;BME280;4395;48.554;8.820;2022-11-14T00:01:05;95512.06;;;1.01;100.00
8717;BME280;4395;48.554;8.820;2022-11-14T00:03:26;94922.91;;;-1.30;100.00
8717;BME280;4395;48.554;8.820;2022-11-14T00:05:48;95790.44;;;5.31;100.00
8717;BME280;4395;48.554;8.820;2022-11-14T00:08:14;94808.53;;;-1.16;100.00
8717;BME280;4395;48.554;8.820;2022-11-14T00:10:35;95784.44;;;5.36;100.00
8717;BME280;4395;48.554;8.820;2022-11-14T00:12:57;93933.03;;;-6.30;100.00
8717;BME280;4395;48.554;8.820;2022-11-14T00:15:18;95820.59;;;4.57;100.00
8717;BME280;4395;48.554;8.820;2022-11-14T00:17:41;95162.41;;;1.29;100.00
8717;BME280;4395;48.554;8.820;2022-11-14T00:20:04;96054.88;;;5.33;100.00
8717;BME280;4395;48.554;8.820;2022-11-14T00:22:25;95021.47;;;0.39;100.00
8717;BME280;4395;48.554;8.820;2022-11-14T00:24:47;95800.94;;;5.26;100.00
8717;BME280;4395;48.554;8.820;2022-11-14T00:27:08;95230.44;;;1.67;100.00
8717;BME280;4395;48.554;8.820;2022-11-14T00:29:29;95193.41;;;1.22;100.00
8717;BME280;4395;48.554;8.820;2022-11-14T00:31:50;95440.25;;;3.03;100.00
8717;BME280;4395;48.554;8.820;2022-11-14T00:34:13;95788.09;;;5.16;100.00
8717;BME280;4395;48.554;8.820;2022-11-14T00:36:35;95006.41;;;0.40;100.00
8717;BME280;4395;48.554;8.820;2022-11-14T00:38:57;95941.75;;;5.29;100.00
8717;BME280;4395;48.554;8.820;2022-11-14T00:41:18;94986.97;;;-0.57;100.00
8717;BME280;4395;48.554;8.820;2022-11-14T00:43:39;95345.00;;;2.00;100.00
8717;BME280;4395;48.554;8.820;2022-11-14T00:46:01;94971.00;;;-0.04;100.00
8717;BME280;4395;48.554;8.820;2022-11-14T00:48:22;95447.81;;;3.24;100.00
8717;BME280;4395;48.554;8.820;2022-11-14T00:50:44;94821.75;;;-2.63;100.00
8717;BME280;4395;48.554;8.820;2022-11-14T00:53:06;95633.63;;;2.35;100.00
8717;BME280;4395;48.554;8.820;2022-11-14T00:55:27;94976.06;;;-0.03;100.00
8717;BME280;4395;48.554;8.820;2022-11-14T00:57:48;95093.66;;;-1.32;100.00
8717;BME280;4395;48.554;8.820;2022-11-14T01:00:13;94957.63;;;-0.16;100.00
8717;BME280;4395;48.554;8.820;2022-11-14T01:02:34;95125.09;;;1.06;100.00
8717;BME280;4395;48.554;8.820;2022-11-14T01:04:56;95795.13;;;5.11;100.00
8717;BME280;4395;48.554;8.820;2022-11-14T01:07:18;95789.19;;;4.91;100.00
8717;BME280;4395;48.554;8.820;2022-11-14T01:09:39;95044.47;;;0.32;100.00
8717;BME280;4395;48.554;8.820;2022-11-14T01:12:01;94929.13;;;-0.58;100.00
8717;BME280;4395;48.554;8.820;2022-11-14T01:14:23;94936.06;;;-0.71;100.00
8717;BME280;4395;48.554;8.820;2022-11-14T01:16:44;95252.69;;;-1.18;100.00
8717;BME280;4395;48.554;8.820;2022-11-14T01:19:05;94854.38;;;-1.30;100.00
8717;BME280;4395;48.554;8.820;2022-11-14T01:21:28;93955.69;;;-6.91;100.00
8717;BME280;4395;48.554;8.820;2022-11-14T01:23:50;94673.09;;;-2.25;100.00
8717;BME280;4395;48.554;8.820;2022-11-14T01:26:12;94883.97;;;-1.15;100.00
8717;BME280;4395;48.554;8.820;2022-11-14T01:28:34;95756.34;;;4.53;100.00
8717;BME280;4395;48.554;8.820;2022-11-14T01:31:06;94808.13;;;-2.86;100.00
8717;BME280;4395;48.554;8.820;2022-11-14T01:33:28;95058.91;;;-2.03;100.00
8717;BME280;4395;48.554;8.820;2022-11-14T01:35:49;95413.78;;;2.58;100.00
8717;BME280;4395;48.554;8.820;2022-11-14T01:38:12;94934.19;;;-0.50;100.00
8717;BME280;4395;48.554;8.820;2022-11-14T01:40:40;94786.88;;;-2.23;100.00
8717;BME280;4395;48.554;8.820;2022-11-14T01:43:25;95721.38;;;4.50;100.00
8717;BME280;4395;48.554;8.820;2022-11-14T01:45:54;95580.94;;;2.51;100.00
8717;BME280;4395;48.554;8.820;2022-11-14T01:48:24;94483.59;;;-4.45;100.00
8717;BME280;4395;48.554;8.820;2022-11-14T01:50:51;95364.78;;;2.36;100.00
8717;BME280;4395;48.554;8.820;2022-11-14T01:53:14;95732.81;;;4.75;100.00
8717;BME280;4395;48.554;8.820;2022-11-14T01:55:37;95424.38;;;2.96;100.00
8717;BME280;4395;48.554;8.820;2022-11-14T01:57:59;95074.78;;;-1.29;100.00
8717;BME280;4395;48.554;8.820;2022-11-14T02:00:20;95470.22;;;3.35;100.00
8717;BME280;4395;48.554;8.820;2022-11-14T02:02:42;94535.81;;;-4.50;100.00
8717;BME280;4395;48.554;8.820;2022-11-14T02:05:07;94827.22;;;-0.59;100.00
8717;BME280;4395;48.554;8.820;2022-11-14T02:07:32;95375.13;;;2.75;100.00
8717;BME280;4395;48.554;8.820;2022-11-14T02:09:54;94037.81;;;-5.57;100.00
8717;BME280;4395;48.554;8.820;2022-11-14T02:12:18;95703.75;;;4.92;100.00
8717;BME280;4395;48.554;8.820;2022-11-14T02:14:41;95207.34;;;0.98;100.00
8717;BME280;4395;48.554;8.820;2022-11-14T02:17:04;95718.63;;;5.00;100.00
8717;BME280;4395;48.554;8.820;2022-11-14T02:19:47;95099.13;;;0.38;100.00
8717;BME280;4395;48.554;8.820;2022-11-14T02:22:10;94820.75;;;-0.63;100.00
8717;BME280;4395;48.554;8.820;2022-11-14T02:24:32;95416.63;;;3.19;100.00
8717;BME280;4395;48.554;8.820;2022-11-14T02:26:53;95707.59;;;4.96;100.00
8717;BME280;4395;48.554;8.820;2022-11-14T02:29:14;95517.63;;;3.81;100.00
8717;BME280;4395;48.554;8.820;2022-11-14T02:31:35;95730.16;;;5.12;100.00
8717;BME280;4395;48.554;8.820;2022-11-14T02:33:57;94966.47;;;0.16;100.00
8717;BME280;4395;48.554;8.820;2022-11-14T02:36:18;95729.06;;;5.20;100.00
8717;BME280;4395;48.554;8.820;2022-11-14T02:38:40;94937.00;;;0.19;100.00
8717;BME280;4395;48.554;8.820;2022-11-14T02:41:02;95718.47;;;5.13;100.00
8717;BME280;4395;48.554;8.820;2022-11-14T02:43:23;95727.88;;;5.15;100.00
8717;BME280;4395;48.554;8.820;2022-11-14T02:45:45;95517.94;;;3.91;100.00
8717;BME280;4395;48.554;8.820;2022-11-14T02:48:06;95712.25;;;5.19;100.00
8717;BME280;4395;48.554;8.820;2022-11-14T02:50:27;95725.66;;;5.31;100.00
8717;BME280;4395;48.554;8.820;2022-11-14T02:52:48;95723.22;;;5.29;100.00
8717;BME280;4395;48.554;8.820;2022-11-14T02:55:12;95014.91;;;0.86;100.00
8717;BME280;4395;48.554;8.820;2022-11-14T02:57:33;94913.09;;;-0.06;100.00
8717;BME280;4395;48.554;8.820;2022-11-14T02:59:54;94700.47;;;-1.29;100.00
8717;BME280;4395;48.554;8.820;2022-11-14T03:02:16;94932.97;;;0.10;100.00
8717;BME280;4395;48.554;8.820;2022-11-14T03:04:37;95117.84;;;0.43;100.00
8717;BME280;4395;48.554;8.820;2022-11-14T03:06:58;94990.28;;;0.54;100.00
8717;BME280;4395;48.554;8.820;2022-11-14T03:09:19;95677.94;;;4.74;100.00
8717;BME280;4395;48.554;8.820;2022-11-14T03:11:41;95070.22;;;-0.35;100.00
8717;BME280;4395;48.554;8.820;2022-11-14T03:14:03;95638.00;;;4.56;100.00
8717;BME280;4395;48.554;8.820;2022-11-14T03:16:24;95737.97;;;5.32;100.00
8717;BME280;4395;48.554;8.820;2022-11-14T03:18:45;95723.91;;;5.25;100.00
8717;BME280;4395;48.554;8.820;2022-11-14T03:21:08;95739.16;;;4.00;100.00
8717;BME280;4395;48.554;8.820;2022-11-14T03:23:30;95377.28;;;2.60;100.00
8717;BME280;4395;48.554;8.820;2022-11-14T03:25:51;95049.31;;;0.80;100.00
8717;BME280;4395;48.554;8.820;2022-11-14T03:28:13;95225.41;;;0.49;100.00
8717;BME280;4395;48.554;8.820;2022-11-14T03:30:34;93977.00;;;-5.53;100.00
8717;BME280;4395;48.554;8.820;2022-11-14T03:32:56;94438.53;;;-2.62;100.00
8717;BME280;4395;48.554;8.820;2022-11-14T03:35:17;95906.16;;;5.17;100.00
8717;BME280;4395;48.554;8.820;2022-11-14T03:37:38;95125.50;;;1.66;100.00
8717;BME280;4395;48.554;8.820;2022-11-14T03:39:59;95506.34;;;4.04;100.00
8717;BME280;4395;48.554;8.820;2022-11-14T03:42:21;95714.78;;;5.32;100.00
8717;BME280;4395;48.554;8.820;2022-11-14T03:44:43;94915.78;;;0.32;100.00
8717;BME280;4395;48.554;8.820;2022-11-14T03:47:04;94971.91;;;0.66;100.00
8717;BME280;4395;48.554;8.820;2022-11-14T03:49:25;95698.66;;;5.27;100.00
8717;BME280;4395;48.554;8.820;2022-11-14T03:51:46;94833.97;;;-0.25;100.00
8717;BME280;4395;48.554;8.820;2022-11-14T03:54:08;95734.22;;;4.96;100.00
8717;BME280;4395;48.554;8.820;2022-11-14T03:56:29;95709.81;;;5.17;100.00
8717;BME280;4395;48.554;8.820;2022-11-14T03:58:50;95501.59;;;3.87;100.00
8717;BME280;4395;48.554;8.820;2022-11-14T04:01:12;95723.94;;;5.18;100.00
8717;BME280;4395;48.554;8.820;2022-11-14T04:03:33;95732.00;;;5.11;100.00
8717;BME280;4395;48.554;8.820;2022-11-14T04:05:55;95728.97;;;5.08;100.00
8717;BME280;4395;48.554;8.820;2022-11-14T04:08:16;95728.16;;;5.07;100.00
8717;BME280;4395;48.554;8.820;2022-11-14T04:10:38;95731.06;;;5.06;100.00
8717;BME280;4395;48.554;8.820;2022-11-14T04:13:00;95066.44;;;0.26;100.00
8717;BME280;4395;48.554;8.820;2022-11-14T04:15:21;94492.38;;;-2.58;100.00
8717;BME280;4395;48.554;8.820;2022-11-14T04:17:44;94908.41;;;0.03;100.00
8717;BME280;4395;48.554;8.820;2022-11-14T04:20:06;95751.75;;;5.04;100.00
8717;BME280;4395;48.554;8.820;2022-11-14T04:22:28;95475.28;;;3.61;100.00
8717;BME280;4395;48.554;8.820;2022-11-14T04:24:49;95691.31;;;5.04;100.00
8717;BME280;4395;48.554;8.820;2022-11-14T04:27:10;95682.38;;;4.99;100.00
8717;BME280;4395;48.554;8.820;2022-11-14T04:29:31;95479.69;;;3.24;100.00
8717;BME280;4395;48.554;8.820;2022-11-14T04:31:52;94559.63;;;-3.63;100.00
8717;BME280;4395;48.554;8.820;2022-11-14T04:34:15;93904.91;;;-6.14;100.00
8717;BME280;4395;48.554;8.820;2022-11-14T04:36:36;95693.81;;;5.17;100.00
8717;BME280;4395;48.554;8.820;2022-11-14T04:38:57;95569.97;;;4.42;100.00
8717;BME280;4395;48.554;8.820;2022-11-14T04:41:19;95198.56;;;1.48;100.00
8717;BME280;4395;48.554;8.820;2022-11-14T04:43:40;95144.44;;;1.38;100.00
8717;BME280;4395;48.554;8.820;2022-11-14T04:46:08;94903.78;;;0.30;100.00
8717;BME280;4395;48.554;8.820;2022-11-14T04:48:29;95676.59;;;5.20;100.00
8717;BME280;4395;48.554;8.820;2022-11-14T04:50:52;95667.94;;;5.25;100.00
8717;BME280;4395;48.554;8.820;2022-11-14T04:53:13;94906.59;;;0.35;100.00
8717;BME280;4395;48.554;8.820;2022-11-14T04:55:34;95479.09;;;3.90;100.00
8717;BME280;4395;48.554;8.820;2022-11-14T04:57:56;94110.44;;;-4.59;100.00
8717;BME280;4395;48.554;8.820;2022-11-14T05:00:18;95616.84;;;4.79;100.00
8717;BME280;4395;48.554;8.820;2022-11-14T05:02:39;94886.75;;;0.26;100.00
8717;BME280;4395;48.554;8.820;2022-11-14T05:05:00;95666.91;;;5.07;100.00
8717;BME280;4395;48.554;8.820;2022-11-14T05:07:23;95472.72;;;3.91;100.00
8717;BME280;4395;48.554;8.820;2022-11-14T05:09:45;94924.38;;;0.53;100.00
8717;BME280;4395;48.554;8.820;2022-11-14T05:12:06;95626.00;;;5.02;100.00
8717;BME280;4395;48.554;8.820;2022-11-14T05:14:27;95659.59;;;5.21;100.00
8717;BME280;4395;48.554;8.820;2022-11-14T05:16:50;95590.53;;;3.67;100.00
8717;BME280;4395;48.554;8.820;2022-11-14T05:19:11;95443.34;;;4.04;100.00
8717;BME280;4395;48.554;8.820;2022-11-14T05:21:33;94836.78;;;0.18;100.00
8717;BME280;4395;48.554;8.820;2022-11-14T05:23:55;95564.78;;;4.65;100.00
8717;BME280;4395;48.554;8.820;2022-11-14T05:26:17;95482.50;;;3.29;100.00
8717;BME280;4395;48.554;8.820;2022-11-14T05:28:38;95244.41;;;2.37;100.00
8717;BME280;4395;48.554;8.820;2022-11-14T05:31:01;95662.38;;;5.08;100.00
8717;BME280;4395;48.554;8.820;2022-11-14T05:33:23;95641.09;;;4.71;100.00
8717;BME280;4395;48.554;8.820;2022-11-14T05:35:44;94335.19;;;-3.40;100.00
8717;BME280;4395;48.554;8.820;2022-11-14T05:38:05;95643.31;;;4.74;100.00
8717;BME280;4395;48.554;8.820;2022-11-14T05:40:27;95636.22;;;4.68;100.00
8717;BME280;4395;48.554;8.820;2022-11-14T05:42:48;95648.22;;;4.34;100.00
8717;BME280;4395;48.554;8.820;2022-11-14T05:45:10;94925.19;;;-2.14;100.00
8717;BME280;4395;48.554;8.820;2022-11-14T05:47:31;95646.41;;;4.71;100.00
8717;BME280;4395;48.554;8.820;2022-11-14T05:49:52;95648.34;;;4.82;100.00
8717;BME280;4395;48.554;8.820;2022-11-14T05:52:14;95646.06;;;4.86;100.00
8717;BME280;4395;48.554;8.820;2022-11-14T05:54:36;94916.84;;;0.25;100.00
8717;BME280;4395;48.554;8.820;2022-11-14T05:56:58;95469.38;;;3.59;100.00
8717;BME280;4395;48.554;8.820;2022-11-14T05:59:19;95660.47;;;4.60;100.00
8717;BME280;4395;48.554;8.820;2022-11-14T06:01:41;94859.47;;;-0.51;100.00
8717;BME280;4395;48.554;8.820;2022-11-14T06:04:04;94920.00;;;-0.62;100.00
8717;BME280;4395;48.554;8.820;2022-11-14T06:06:26;95675.59;;;4.41;100.00
8717;BME280;4395;48.554;8.820;2022-11-14T06:08:47;95101.25;;;-1.64;100.00
8717;BME280;4395;48.554;8.820;2022-11-14T06:11:10;94697.78;;;-2.40;100.00
8717;BME280;4395;48.554;8.820;2022-11-14T06:13:33;94982.41;;;-0.10;100.00
8717;BME280;4395;48.554;8.820;2022-11-14T06:15:57;95305.91;;;1.89;100.00
8717;BME280;4395;48.554;8.820;2022-11-14T06:18:19;95683.69;;;4.28;100.00
8717;BME280;4395;48.554;8.820;2022-11-14T06:20:40;94909.44;;;-0.62;100.00
8717;BME280;4395;48.554;8.820;2022-11-14T06:23:01;95661.31;;;3.61;100.00
8717;BME280;4395;48.554;8.820;2022-11-14T06:25:22;95694.94;;;3.42;100.00
8717;BME280;4395;48.554;8.820;2022-11-14T06:27:43;94785.88;;;-2.22;100.00
8717;BME280;4395;48.554;8.820;2022-11-14T06:30:07;95681.06;;;3.40;100.00
8717;BME280;4395;48.554;8.820;2022-11-14T06:32:29;94766.03;;;-2.25;100.00
8717;BME280;4395;48.554;8.820;2022-11-14T06:34:50;95684.28;;;3.80;100.00
8717;BME280;4395;48.554;8.820;2022-11-14T06:37:11;94721.06;;;-2.37;100.00
8717;BME280;4395;48.554;8.820;2022-11-14T06:39:32;94867.34;;;-1.35;100.00
8717;BME280;4395;48.554;8.820;2022-11-14T06:41:53;94856.22;;;-1.37;100.00
8717;BME280;4395;48.554;8.820;2022-11-14T06:44:14;95491.13;;;2.68;100.00
8717;BME280;4395;48.554;8.820;2022-11-14T06:46:38;95680.94;;;3.92;100.00
8717;BME280;4395;48.554;8.820;2022-11-14T06:48:59;95650.34;;;3.51;100.00
8717;BME280;4395;48.554;8.820;2022-11-14T06:51:20;95685.81;;;3.95;100.00
8717;BME280;4395;48.554;8.820;2022-11-14T06:53:42;95682.84;;;4.09;100.00
8717;BME280;4395;48.554;8.820;2022-11-14T06:56:05;95096.56;;;-1.01;100.00
8717;BME280;4395;48.554;8.820;2022-11-14T06:58:28;94656.06;;;-2.03;100.00
8717;BME280;4395;48.554;8.820;2022-11-14T07:00:49;95048.66;;;0.53;100.00
8717;BME280;4395;48.554;8.820;2022-11-14T07:03:12;95014.75;;;0.37;100.00
8717;BME280;4395;48.554;8.820;2022-11-14T07:05:33;95670.06;;;4.43;100.00
8717;BME280;4395;48.554;8.820;2022-11-14T07:07:56;94731.16;;;-1.68;100.00
8717;BME280;4395;48.554;8.820;2022-11-14T07:10:17;94956.63;;;-0.15;100.00
8717;BME280;4395;48.554;8.820;2022-11-14T07:12:38;94883.41;;;-0.46;100.00
8717;BME280;4395;48.554;8.820;2022-11-14T07:14:59;95030.19;;;-0.25;100.00
8717;BME280;4395;48.554;8.820;2022-11-14T07:17:21;95684.13;;;4.68;100.00
8717;BME280;4395;48.554;8.820;2022-11-14T07:19:50;95568.19;;;4.17;100.00
8717;BME280;4395;48.554;8.820;2022-11-14T07:22:11;95482.59;;;3.66;100.00
8717;BME280;4395;48.554;8.820;2022-11-14T07:24:32;94874.78;;;-0.21;100.00
8717;BME280;4395;48.554;8.820;2022-11-14T07:26:54;95679.63;;;5.05;100.00
8717;BME280;4395;48.554;8.820;2022-11-14T07:29:15;95614.09;;;4.86;100.00
8717;BME280;4395;48.554;8.820;2022-11-14T07:31:36;95470.53;;;4.06;100.00
8717;BME280;4395;48.554;8.820;2022-11-14T07:33:57;95941.56;;;5.49;100.00
8717;BME280;4395;48.554;8.820;2022-11-14T07:36:20;95648.41;;;5.31;100.00
8717;BME280;4395;48.554;8.820;2022-11-14T07:38:41;94929.75;;;0.96;100.00
8717;BME280;4395;48.554;8.820;2022-11-14T07:41:04;95765.78;;;5.84;100.00
8717;BME280;4395;48.554;8.820;2022-11-14T07:43:26;95693.03;;;5.95;100.00
8717;BME280;4395;48.554;8.820;2022-11-14T07:45:48;95696.31;;;6.09;100.00
8717;BME280;4395;48.554;8.820;2022-11-14T07:48:10;95697.25;;;6.15;100.00
8717;BME280;4395;48.554;8.820;2022-11-14T07:50:31;95263.69;;;3.48;100.00
8717;BME280;4395;48.554;8.820;2022-11-14T07:52:54;95638.94;;;5.46;100.00
8717;BME280;4395;48.554;8.820;2022-11-14T07:55:16;95476.31;;;4.51;100.00
8717;BME280;4395;48.554;8.820;2022-11-14T07:57:37;95543.31;;;5.27;100.00
8717;BME280;4395;48.554;8.820;2022-11-14T08:00:07;95720.84;;;6.41;100.00
8717;BME280;4395;48.554;8.820;2022-11-14T08:02:29;95405.13;;;4.47;100.00
8717;BME280;4395;48.554;8.820;2022-11-14T08:04:50;95720.41;;;6.44;100.00
8717;BME280;4395;48.554;8.820;2022-11-14T08:07:11;95729.34;;;6.50;100.00
8717;BME280;4395;48.554;8.820;2022-11-14T08:09:34;94963.28;;;1.70;100.00
8717;BME280;4395;48.554;8.820;2022-11-14T08:11:55;95722.34;;;6.37;100.00
8717;BME280;4395;48.554;8.820;2022-11-14T08:14:16;94189.59;;;-3.71;100.00
8717;BME280;4395;48.554;8.820;2022-11-14T08:16:38;95508.84;;;5.13;100.00
8717;BME280;4395;48.554;8.820;2022-11-14T08:18:59;95724.44;;;6.35;100.00
8717;BME280;4395;48.554;8.820;2022-11-14T08:21:20;95718.06;;;6.36;100.00
8717;BME280;4395;48.554;8.820;2022-11-14T08:23:41;95720.16;;;6.34;100.00
8717;BME280;4395;48.554;8.820;2022-11-14T08:26:05;95125.09;;;1.69;100.00
8717;BME280;4395;48.554;8.820;2022-11-14T08:28:27;95722.72;;;6.40;100.00
8717;BME280;4395;48.554;8.820;2022-11-14T08:30:48;95529.63;;;5.23;100.00
8717;BME280;4395;48.554;8.820;2022-11-14T08:33:09;95714.81;;;6.45;100.00
8717;BME280;4395;48.554;8.820;2022-11-14T08:35:32;95568.28;;;5.56;100.00
8717;BME280;4395;48.554;8.820;2022-11-14T08:37:53;95726.19;;;6.41;100.00
8717;BME280;4395;48.554;8.820;2022-11-14T08:40:15;94502.72;;;-1.54;100.00
8717;BME280;4395;48.554;8.820;2022-11-14T08:42:37;95649.78;;;5.93;100.00
8717;BME280;4395;48.554;8.820;2022-11-14T08:44:59;95738.13;;;6.27;100.00
8717;BME280;4395;48.554;8.820;2022-11-14T08:47:20;95721.06;;;6.28;100.00
8717;BME280;4395;48.554;8.820;2022-11-14T08:49:41;95727.44;;;6.27;100.00
8717;BME280;4395;48.554;8.820;2022-11-14T08:52:03;95397.69;;;3.89;100.00
8717;BME280;4395;48.554;8.820;2022-11-14T08:54:24;95721.06;;;6.28;100.00
8717;BME280;4395;48.554;8.820;2022-11-14T08:56:46;95712.84;;;6.29;100.00
8717;BME280;4395;48.554;8.820;2022-11-14T08:59:08;95721.41;;;6.31;100.00
8717;BME280;4395;48.554;8.820;2022-11-14T09:01:30;95707.03;;;6.32;100.00
8717;BME280;4395;48.554;8.820;2022-11-14T09:03:52;95722.94;;;6.39;100.00
8717;BME280;4395;48.554;8.820;2022-11-14T09:06:18;95708.31;;;6.30;100.00
8717;BME280;4395;48.554;8.820;2022-11-14T09:08:40;95710.19;;;6.41;100.00
8717;BME280;4395;48.554;8.820;2022-11-14T09:11:01;95709.38;;;6.40;100.00
8717;BME280;4395;48.554;8.820;2022-11-14T09:13:25;95703.44;;;6.50;100.00
8717;BME280;4395;48.554;8.820;2022-11-14T09:15:49;95714.94;;;6.51;100.00
8717;BME280;4395;48.554;8.820;2022-11-14T09:18:11;95274.56;;;3.77;100.00
8717;BME280;4395;48.554;8.820;2022-11-14T09:20:32;95709.84;;;6.49;100.00
8717;BME280;4395;48.554;8.820;2022-11-14T09:22:59;95639.03;;;6.23;100.00
8717;BME280;4395;48.554;8.820;2022-11-14T09:25:20;95712.75;;;6.83;100.00
8717;BME280;4395;48.554;8.820;2022-11-14T09:27:41;95607.94;;;6.40;100.00
8717;BME280;4395;48.554;8.820;2022-11-14T09:30:03;95713.41;;;7.13;100.00
8717;BME280;4395;48.554;8.820;2022-11-14T09:32:26;95499.00;;;6.02;100.00
8717;BME280;4395;48.554;8.820;2022-11-14T09:34:47;95714.13;;;7.49;100.00
8717;BME280;4395;48.554;8.820;2022-11-14T09:37:09;95718.16;;;7.63;100.00
8717;BME280;4395;48.554;8.820;2022-11-14T09:39:30;95722.91;;;7.72;100.00
8717;BME280;4395;48.554;8.820;2022-11-14T09:42:01;95722.41;;;7.87;100.00
8717;BME280;4395;48.554;8.820;2022-11-14T09:44:43;95720.47;;;7.99;100.00
8717;BME280;4395;48.554;8.820;2022-11-14T09:47:10;95712.41;;;8.11;100.00
8717;BME280;4395;48.554;8.820;2022-11-14T09:49:42;95720.28;;;8.18;100.00
8717;BME280;4395;48.554;8.820;2022-11-14T09:52:10;95723.84;;;8.23;100.00
8717;BME280;4395;48.554;8.820;2022-11-14T09:54:41;95719.88;;;8.26;100.00
8717;BME280;4395;48.554;8.820;2022-11-14T09:57:12;95711.34;;;8.29;100.00
8717;BME280;4395;48.554;8.820;2022-11-14T09:59:34;95725.91;;;8.33;100.00
8717;BME280;4395;48.554;8.820;2022-11-14T10:02:00;95720.06;;;8.36;100.00
8717;BME280;4395;48.554;8.820;2022-11-14T10:04:35;95723.41;;;8.43;100.00
8717;BME280;4395;48.554;8.820;2022-11-14T10:07:06;95601.47;;;7.73;100.00
8717;BME280;4395;48.554;8.820;2022-11-14T10:09:41;95721.47;;;8.55;100.00
8717;BME280;4395;48.554;8.820;2022-11-14T10:12:13;95716.25;;;8.65;100.00
8717;BME280;4395;48.554;8.820;2022-11-14T10:14:52;95713.50;;;8.77;100.00
8717;BME280;4395;48.554;8.820;2022-11-14T10:17:35;95716.41;;;8.76;100.00
8717;BME280;4395;48.554;8.820;2022-11-14T10:20:02;95717.69;;;8.90;100.00
8717;BME280;4395;48.554;8.820;2022-11-14T10:22:47;95712.91;;;8.92;100.00
8717;BME280;4395;48.554;8.820;2022-11-14T10:25:21;95641.34;;;8.54;100.00
8717;BME280;4395;48.554;8.820;2022-11-14T10:27:49;95725.22;;;9.10;100.00
8717;BME280;4395;48.554;8.820;2022-11-14T10:30:29;95723.84;;;9.07;100.00
8717;BME280;4395;48.554;8.820;2022-11-14T10:33:12;95713.19;;;9.12;100.00
8717;BME280;4395;48.554;8.820;2022-11-14T10:35:41;95374.34;;;7.00;100.00
8717;BME280;4395;48.554;8.820;2022-11-14T10:38:12;95723.13;;;9.33;100.00
8717;BME280;4395;48.554;8.820;2022-11-14T10:40:39;95717.44;;;9.30;100.00
8717;BME280;4395;48.554;8.820;2022-11-14T10:43:06;95730.69;;;9.37;100.00
8717;BME280;4395;48.554;8.820;2022-11-14T10:45:35;95721.75;;;9.53;100.00
8717;BME280;4395;48.554;8.820;2022-11-14T10:48:01;95722.63;;;9.58;100.00
8717;BME280;4395;48.554;8.820;2022-11-14T10:50:27;95722.63;;;9.58;100.00
8717;BME280;4395;48.554;8.820;2022-11-14T10:52:56;95721.63;;;9.64;100.00
8717;BME280;4395;48.554;8.820;2022-11-14T10:55:22;95719.75;;;9.65;100.00
8717;BME280;4395;48.554;8.820;2022-11-14T10:58:08;95724.63;;;9.68;100.00
8717;BME280;4395;48.554;8.820;2022-11-14T11:00:30;95729.38;;;9.61;100.00
8717;BME280;4395;48.554;8.820;2022-11-14T11:02:53;95722.94;;;9.62;100.00
8717;BME280;4395;48.554;8.820;2022-11-14T11:05:17;95335.22;;;7.27;100.00
8717;BME280;4395;48.554;8.820;2022-11-14T11:07:43;95711.53;;;9.72;100.00
8717;BME280;4395;48.554;8.820;2022-11-14T11:10:44;95723.81;;;9.67;100.00
8717;BME280;4395;48.554;8.820;2022-11-14T11:13:31;95740.91;;;9.61;100.00
8717;BME280;4395;48.554;8.820;2022-11-14T11:15:54;95348.59;;;6.77;100.00
8717;BME280;4395;48.554;8.820;2022-11-14T11:18:24;95720.25;;;9.62;100.00
8717;BME280;4395;48.554;8.820;2022-11-14T11:21:00;95710.16;;;9.69;100.00
8717;BME280;4395;48.554;8.820;2022-11-14T11:23:25;95709.97;;;9.76;100.00
8717;BME280;4395;48.554;8.820;2022-11-14T11:25:58;95703.59;;;9.82;100.00
8717;BME280;4395;48.554;8.820;2022-11-14T11:28:20;95702.03;;;9.64;100.00
8717;BME280;4395;48.554;8.820;2022-11-14T11:30:54;95577.34;;;8.96;100.00
8717;BME280;4395;48.554;8.820;2022-11-14T11:33:22;95703.22;;;9.73;100.00
8717;BME280;4395;48.554;8.820;2022-11-14T11:35:45;95598.41;;;9.09;100.00
8717;BME280;4395;48.554;8.820;2022-11-14T11:38:10;95585.19;;;8.81;100.00
8717;BME280;4395;48.554;8.820;2022-11-14T11:40:35;95706.00;;;9.83;100.00
8717;BME280;4395;48.554;8.820;2022-11-14T11:43:02;95698.53;;;9.85;100.00
8717;BME280;4395;48.554;8.820;2022-11-14T11:45:47;95705.22;;;9.83;100.00
8717;BME280;4395;48.554;8.820;2022-11-14T11:48:15;95694.88;;;9.96;100.00
8717;BME280;4395;48.554;8.820;2022-11-14T11:50:37;95689.47;;;9.91;100.00
8717;BME280;4395;48.554;8.820;2022-11-14T11:53:05;95701.97;;;10.08;100.00
8717;BME280;4395;48.554;8.820;2022-11-14T11:55:33;95692.34;;;10.12;100.00
8717;BME280;4395;48.554;8.820;2022-11-14T11:58:03;95687.16;;;10.27;100.00
8717;BME280;4395;48.554;8.820;2022-11-14T12:00:25;95685.97;;;10.45;100.00
8717;BME280;4395;48.554;8.820;2022-11-14T12:02:48;95682.94;;;10.68;100.00
8717;BME280;4395;48.554;8.820;2022-11-14T12:05:14;95680.16;;;10.95;100.00
8717;BME280;4395;48.554;8.820;2022-11-14T12:07:40;95674.44;;;11.28;100.00
8717;BME280;4395;48.554;8.820;2022-11-14T12:10:09;95674.41;;;11.86;100.00
8717;BME280;4395;48.554;8.820;2022-11-14T12:12:49;95669.34;;;12.20;100.00
8717;BME280;4395;48.554;8.820;2022-11-14T12:15:23;95565.88;;;11.85;100.00
8717;BME280;4395;48.554;8.820;2022-11-14T12:18:13;95679.59;;;12.74;100.00
8717;BME280;4395;48.554;8.820;2022-11-14T12:20:49;95678.50;;;13.05;100.00
8717;BME280;4395;48.554;8.820;2022-11-14T12:23:36;95675.72;;;13.46;100.00
8717;BME280;4395;48.554;8.820;2022-11-14T12:26:32;95251.09;;;10.74;100.00
8717;BME280;4395;48.554;8.820;2022-11-14T12:29:16;95608.59;;;13.78;100.00
8717;BME280;4395;48.554;8.820;2022-11-14T12:31:46;95677.34;;;14.45;100.00
8717;BME280;4395;48.554;8.820;2022-11-14T12:34:16;95601.69;;;14.01;100.00
8717;BME280;4395;48.554;8.820;2022-11-14T12:36:43;95188.41;;;11.88;100.00
8717;BME280;4395;48.554;8.820;2022-11-14T12:39:05;95670.50;;;14.87;100.00
8717;BME280;4395;48.554;8.820;2022-11-14T12:41:28;95662.50;;;14.43;100.00
8717;BME280;4395;48.554;8.820;2022-11-14T12:43:50;95197.84;;;10.96;100.00
8717;BME280;4395;48.554;8.820;2022-11-14T12:46:12;95477.47;;;12.43;100.00
8717;BME280;4395;48.554;8.820;2022-11-14T12:48:36;95665.44;;;13.53;100.00
8717;BME280;4395;48.554;8.820;2022-11-14T12:50:59;95264.50;;;11.04;100.00
8717;BME280;4395;48.554;8.820;2022-11-14T12:53:41;95645.56;;;12.93;100.00
8717;BME280;4395;48.554;8.820;2022-11-14T12:56:17;95662.44;;;13.60;100.00
8717;BME280;4395;48.554;8.820;2022-11-14T12:58:49;95597.28;;;13.12;100.00
8717;BME280;4395;48.554;8.820;2022-11-14T13:01:29;95458.72;;;12.03;100.00
8717;BME280;4395;48.554;8.820;2022-11-14T13:04:06;95659.50;;;13.51;100.00